sensor_id;sensor_type;location;lat;lon;timestamp;P1;durP1;ratioP1;P2;durP2;ratioP2
78772;SDS011;68111;44.728;11.290;2023-09-19T06:17:19;22.05;;;6.65;;
78772;SDS011;68111;44.728;11.290;2023-09-19T06:19:48;23.13;;;7.55;;
78772;SDS011;68111;44.728;11.290;2023-09-19T06:22:16;22.15;;;7.35;;
78772;SDS011;68111;44.728;11.290;2023-09-19T06:24:45;31.27;;;7.60;;
78772;SDS011;68111;44.728;11.290;2023-09-19T06:27:13;25.10;;;7.47;;
78772;SDS011;68111;44.728;11.290;2023-09-19T06:29:40;26.50;;;6.80;;
78772;SDS011;68111;44.728;11.290;2023-09-19T06:32:07;24.10;;;6.22;;
78772;SDS011;68111;44.728;11.290;2023-09-19T06:34:36;19.38;;;6.28;;
78772;SDS011;68111;44.728;11.290;2023-09-19T06:37:05;26.77;;;6.70;;
78772;SDS011;68111;44.728;11.290;2023-09-19T06:39:32;27.90;;;7.18;;
78772;SDS011;68111;44.728;11.290;2023-09-19T06:41:59;21.58;;;6.60;;
78772;SDS011;68111;44.728;11.290;2023-09-19T06:44:28;20.85;;;6.38;;
78772;SDS011;68111;44.728;11.290;2023-09-19T06:46:56;19.23;;;6.20;;
78772;SDS011;68111;44.728;11.290;2023-09-19T06:49:23;16.90;;;6.00;;
78772;SDS011;68111;44.728;11.290;2023-09-19T06:51:49;22.23;;;6.65;;
78772;SDS011;68111;44.728;11.290;2023-09-19T06:54:16;20.85;;;7.43;;
78772;SDS011;68111;44.728;11.290;2023-09-19T06:56:44;23.35;;;8.00;;
78772;SDS011;68111;44.728;11.290;2023-09-19T06:59:11;23.65;;;8.23;;
78772;SDS011;68111;44.728;11.290;2023-09-19T07:01:40;24.88;;;8.25;;
78772;SDS011;68111;44.728;11.290;2023-09-19T07:04:12;20.92;;;8.40;;
78772;SDS011;68111;44.728;11.290;2023-09-19T07:06:39;26.58;;;10.40;;
78772;SDS011;68111;44.728;11.290;2023-09-19T07:09:07;25.92;;;9.40;;
78772;SDS011;68111;44.728;11.290;2023-09-19T07:17:40;27.85;;;10.60;;
78772;SDS011;68111;44.728;11.290;2023-09-19T08:01:10;18.45;;;6.35;;
78772;SDS011;68111;44.728;11.290;2023-09-19T08:52:42;25.77;;;7.78;;
78772;SDS011;68111;44.728;11.290;2023-09-19T09:47:00;22.02;;;5.22;;
78772;SDS011;68111;44.728;11.290;2023-09-19T10:01:17;14.48;;;5.45;;
78772;SDS011;68111;44.728;11.290;2023-09-19T10:22:38;29.83;;;6.22;;
78772;SDS011;68111;44.728;11.290;2023-09-19T10:25:27;20.30;;;5.38;;
78772;SDS011;68111;44.728;11.290;2023-09-19T10:27:56;23.33;;;5.63;;
78772;SDS011;68111;44.728;11.290;2023-09-19T10:30:29;22.55;;;5.95;;
78772;SDS011;68111;44.728;11.290;2023-09-19T10:33:03;26.00;;;5.35;;
78772;SDS011;68111;44.728;11.290;2023-09-19T10:48:05;29.20;;;8.97;;
78772;SDS011;68111;44.728;11.290;2023-09-19T10:50:35;21.13;;;8.52;;
78772;SDS011;68111;44.728;11.290;2023-09-19T10:53:08;21.60;;;10.40;;
78772;SDS011;68111;44.728;11.290;2023-09-19T10:55:37;18.83;;;7.85;;
78772;SDS011;68111;44.728;11.290;2023-09-19T10:58:05;22.73;;;8.52;;
78772;SDS011;68111;44.728;11.290;2023-09-19T11:00:51;23.17;;;10.32;;
78772;SDS011;68111;44.728;11.290;2023-09-19T11:03:45;21.95;;;9.88;;
78772;SDS011;68111;44.728;11.290;2023-09-19T11:06:19;18.75;;;9.65;;
78772;SDS011;68111;44.728;11.290;2023-09-19T11:11:52;17.00;;;7.43;;
78772;SDS011;68111;44.728;11.290;2023-09-19T11:40:52;26.23;;;8.82;;
78772;SDS011;68111;44.728;11.290;2023-09-19T11:46:27;21.73;;;7.70;;
78772;SDS011;68111;44.728;11.290;2023-09-19T11:48:55;14.50;;;6.50;;
78772;SDS011;68111;44.728;11.290;2023-09-19T11:51:42;17.65;;;6.78;;
78772;SDS011;68111;44.728;11.290;2023-09-19T11:54:11;17.42;;;7.68;;
78772;SDS011;68111;44.728;11.290;2023-09-19T11:56:45;15.43;;;6.70;;
78772;SDS011;68111;44.728;11.290;2023-09-19T11:59:26;17.80;;;5.72;;
78772;SDS011;68111;44.728;11.290;2023-09-19T12:02:05;17.17;;;6.90;;
78772;SDS011;68111;44.728;11.290;2023-09-19T12:04:39;19.13;;;6.38;;
78772;SDS011;68111;44.728;11.290;2023-09-19T12:07:10;16.92;;;6.40;;
78772;SDS011;68111;44.728;11.290;2023-09-19T12:09:43;15.98;;;6.50;;
78772;SDS011;68111;44.728;11.290;2023-09-19T12:12:19;19.45;;;6.90;;
78772;SDS011;68111;44.728;11.290;2023-09-19T12:14:48;15.70;;;6.10;;
78772;SDS011;68111;44.728;11.290;2023-09-19T12:17:16;16.10;;;6.82;;
78772;SDS011;68111;44.728;11.290;2023-09-19T12:19:51;17.92;;;6.50;;
78772;SDS011;68111;44.728;11.290;2023-09-19T12:22:18;16.05;;;7.00;;
78772;SDS011;68111;44.728;11.290;2023-09-19T12:27:40;15.75;;;6.40;;
78772;SDS011;68111;44.728;11.290;2023-09-19T12:30:14;14.43;;;6.32;;
78772;SDS011;68111;44.728;11.290;2023-09-19T12:32:47;13.60;;;6.53;;
78772;SDS011;68111;44.728;11.290;2023-09-19T12:35:29;16.95;;;6.45;;
78772;SDS011;68111;44.728;11.290;2023-09-19T12:38:02;16.02;;;6.63;;
78772;SDS011;68111;44.728;11.290;2023-09-19T12:40:30;14.30;;;6.78;;
78772;SDS011;68111;44.728;11.290;2023-09-19T12:43:00;17.87;;;6.53;;
78772;SDS011;68111;44.728;11.290;2023-09-19T12:45:31;13.40;;;5.88;;
78772;SDS011;68111;44.728;11.290;2023-09-19T13:09:08;15.23;;;5.68;;
78772;SDS011;68111;44.728;11.290;2023-09-19T13:11:36;16.70;;;5.78;;
78772;SDS011;68111;44.728;11.290;2023-09-19T13:19:35;14.88;;;5.15;;
78772;SDS011;68111;44.728;11.290;2023-09-19T13:22:02;13.30;;;5.35;;
78772;SDS011;68111;44.728;11.290;2023-09-19T13:24:32;15.48;;;4.97;;
78772;SDS011;68111;44.728;11.290;2023-09-19T13:27:20;14.45;;;5.40;;
78772;SDS011;68111;44.728;11.290;2023-09-19T13:29:47;15.52;;;5.25;;
78772;SDS011;68111;44.728;11.290;2023-09-19T14:56:20;11.70;;;4.25;;
78772;SDS011;68111;44.728;11.290;2023-09-19T14:58:51;11.13;;;4.50;;
78772;SDS011;68111;44.728;11.290;2023-09-19T15:56:11;10.20;;;4.60;;
78772;SDS011;68111;44.728;11.290;2023-09-19T15:58:39;13.77;;;4.88;;
78772;SDS011;68111;44.728;11.290;2023-09-19T16:01:13;15.23;;;5.05;;
78772;SDS011;68111;44.728;11.290;2023-09-19T16:03:48;11.55;;;4.38;;
